createdAt,value
2022-11-02T00:00:25.045Z,1026.0
2022-11-02T00:15:23.804Z,1026.0
2022-11-02T00:30:25.042Z,1026.0
2022-11-02T00:45:23.906Z,1026.0
2022-11-02T01:00:25.478Z,1027.0
2022-11-02T01:15:23.971Z,1027.0
2022-11-02T01:30:24.026Z,1026.3
2022-11-02T01:45:23.877Z,1026.0
2022-11-02T02:00:28.067Z,1026.0
2022-11-02T02:15:24.070Z,1026.0
2022-11-02T02:30:24.091Z,1026.0
2022-11-02T02:45:23.829Z,1026.0
2022-11-02T03:00:23.933Z,1026.0
2022-11-02T03:15:24.408Z,1026.0
2022-11-02T03:30:24.113Z,1026.0
2022-11-02T03:45:23.898Z,1026.0
2022-11-02T04:00:29.750Z,1026.0
2022-11-02T04:15:24.175Z,1026.0
2022-11-02T04:30:24.087Z,1026.0
2022-11-02T04:45:24.022Z,1026.0
2022-11-02T05:00:28.804Z,1026.0
2022-11-02T05:15:24.147Z,1026.3
2022-11-02T05:30:24.484Z,1027.0
2022-11-02T05:45:24.705Z,1027.0
2022-11-02T06:00:40.282Z,1027.0
2022-11-02T06:15:24.299Z,1027.0
2022-11-02T06:30:33.556Z,1027.0
2022-11-02T06:45:33.251Z,1027.0
2022-11-02T07:00:42.047Z,1027.3
2022-11-02T07:15:23.573Z,1028.0
2022-11-02T07:30:23.628Z,1028.0
2022-11-02T07:45:23.320Z,1028.0
2022-11-02T08:00:26.470Z,1028.0
2022-11-02T08:15:23.729Z,1028.0
2022-11-02T08:30:23.526Z,1028.0
2022-11-02T08:45:23.588Z,1028.0
2022-11-02T09:00:30.796Z,1028.0
2022-11-02T09:15:23.739Z,1028.0
2022-11-02T09:30:23.594Z,1028.0
2022-11-02T09:45:23.839Z,1028.0
2022-11-02T10:00:27.638Z,1028.0
2022-11-02T10:15:23.992Z,1028.0
2022-11-02T10:30:30.668Z,1028.0
2022-11-02T10:45:23.759Z,1028.0
2022-11-02T11:00:31.878Z,1028.0
2022-11-02T11:15:48.257Z,1028.0
2022-11-02T11:30:46.152Z,1028.0
2022-11-02T11:45:23.672Z,1028.0
2022-11-02T12:00:37.208Z,1027.7
2022-11-02T12:15:23.822Z,1027.0
2022-11-02T12:30:24.753Z,1027.0
2022-11-02T12:45:23.824Z,1027.0
2022-11-02T13:00:39.320Z,1027.0
2022-11-02T13:15:23.899Z,1027.0
2022-11-02T13:30:23.874Z,1027.0
2022-11-02T13:45:24.004Z,1027.0
2022-11-02T14:00:31.778Z,1026.5
2022-11-02T14:15:23.948Z,1026.7
2022-11-02T14:30:25.427Z,1026.0
2022-11-02T14:45:23.856Z,1026.0
2022-11-02T15:00:28.314Z,1026.0
2022-11-02T15:15:23.908Z,1026.0
2022-11-02T15:30:28.348Z,1026.0
2022-11-02T15:45:47.872Z,1026.0
2022-11-02T16:00:41.173Z,1026.0
2022-11-02T16:15:24.323Z,1026.0
2022-11-02T16:30:24.560Z,1026.0
2022-11-02T16:45:24.057Z,1026.0
2022-11-02T17:00:28.471Z,1026.0
2022-11-02T17:15:24.519Z,1026.0
2022-11-02T17:30:24.254Z,1026.0
2022-11-02T17:45:24.250Z,1026.0
2022-11-02T18:00:27.027Z,1026.0
2022-11-02T18:15:24.953Z,1026.0
2022-11-02T18:30:34.734Z,1026.0
2022-11-02T18:45:33.246Z,1026.0
2022-11-02T19:00:36.819Z,1026.0
2022-11-02T19:15:23.424Z,1026.0
2022-11-02T19:30:23.434Z,1025.5
2022-11-02T19:45:23.643Z,1025.3
2022-11-02T20:00:23.450Z,1026.0
2022-11-02T20:15:23.269Z,1026.0
2022-11-02T20:30:27.966Z,1025.0
2022-11-02T20:45:23.536Z,1025.0
2022-11-02T21:00:24.639Z,1025.0
2022-11-02T21:15:23.724Z,1025.0
2022-11-02T21:30:26.195Z,1025.0
2022-11-02T21:45:26.155Z,1025.0
2022-11-02T22:00:27.376Z,1025.0
2022-11-02T22:15:23.952Z,1025.0
2022-11-02T22:30:24.067Z,1025.0
2022-11-02T22:45:23.834Z,1025.0
2022-11-02T23:15:23.718Z,1025.0
2022-11-02T23:30:23.609Z,1025.0
2022-11-02T23:45:23.607Z,1025.0
